Terminal Aerodrome Forecast
Issued by NWS

Home | Current Version | Previous Version | Text Only | Print | Product List | Glossary On
Versions: 1 2 3 4 5 6 7 8 9 10 11 12 13 14 15 16 17 18 19 20 21 22 23 24 25 26 27 28 29 30 31 32 33 34 35 36 37
687
FTUS46 KLOX 302056 AAB
TAFLAX
TAF AMD
KLAX 302056Z 3021/3124 27012KT P6SM FEW027 SCT030
     FM302200 26012KT P6SM SCT025
     FM310500 26007KT P6SM BKN010
     FM310800 VRB03KT P6SM OVC010
     FM311730 27007KT P6SM SCT015
     FM312000 26012KT P6SM SKC=

USA.gov is the U.S. government's official web portal to all federal, state and local government web resources and services.